Higden, Arkansas
Current Conditions -  °F | °C
As of 3:15 AM on Thursday 27 Nov 2014 (Local Time) from KCCA Reporting Station
Clear Clear  
Wind Chill: 30°   Ceiling: Unl
Heat Index: 37°   Visibility: 10mi
Dew Point: 25°   Wind: 10mph
Humidity: 60%   Direction: 310°NW
Pressure: 30.39"   Gusts: 18mph
Location:  35.57°N, 92.2°W
Report Text: KCCA 270915Z AUTO 31009G16KT 030V040 10SM CLR 03/M04 A3039 RMK AO2
Loading
Personal Weather Stations






























Interactive Weather Map New forecast layout! Learn more

10-Day Weather Forecast

Advertisements
Track Severe Weather on mobile